Ride Results

*Covid Buster* Ride (01-08-2020)
Ride distance: 80.0 km

Outcomes - *Covid Buster* Ride (01-08-2020)
Division No. of Entries Retired / DNE Completed Withdrawn Ineligible V/O Percentage Completed
HW 3 - 2 - - 1 66.67%
MW 13 - 9 - - 4 69.23%
LW 7 - 4 - - 3 57.14%
JN 4 - 3 - - 1 75.00%
Totals 27 - 18 - - 9 66.67%
Results - *Covid Buster* Ride (01-08-2020)
No. Rider Horse Place Time Leg Speeds Total
Km/Hr
H/R bpm
Heavyweight
171 Craig Wall Sierra Lodge Elysium Gold 1 (BC) 5:52:39 15.4, 12.1 13.61 47, 53, 56 (Avg:54)
333 Rebecca Ainslie Tomky Wilde Zeus 2 7:49:43 12.4, 8.6 10.22 34, 44, 56 (Avg:50)
38 Tony Purton Beer Street Bewitched Lame L2 0:00:00 17.9, 13.6 - 34, 41, 41 (Avg:41)
Middleweight
300 Raelene Smith Splitters Creek Cypress 1 (BC) 6:12:06 13.8, 12.0 12.90 42, 43, 43 (Avg:43)
139 Cacia Rand Shayelle Chocolate 2 6:16:35 12.8, 12.6 12.75 28, 42, 45 (Avg:43)
142 Shayne Williams Shayelle Boh Magic 3 6:16:39 12.8, 12.6 12.74 42, 49, 57 (Avg:53)
136 Kaye Mitchell Beer Street Alice M 4 6:21:16 13.2, 12.0 12.59 45, 49, 49 (Avg:49)
57 Tania Jago Rivergum Ripper 5 6:23:52 14.1, 11.1 12.50 40, 42, 52 (Avg:47)
78 Angus Alsop Santashka Jewel of Alii 6 6:30:58 13.1, 11.4 12.28 44, 48, 48 (Avg:48)
77 Tim Barker Lockleigh Park Destinee 7 6:36:38 11.7, 12.5 12.10 35, 42, 42 (Avg:42)
165 Danielle Taylor Vandieman Risk 8 6:44:26 11.0, 12.8 11.87 44, 46, 50 (Avg:48)
4 Helen Bowkett Kintamani Silver Daquiri 9 7:52:56 11.0, 9.3 10.15 38, 42, 46 (Avg:44)
332 Jillinda Aitchison Ravel Lame L2 0:00:00 13.1, 11.4 - 40, 47, 49 (Avg:48)
185 Mikaela Jago Kiss Of Fame Heart Rate L2 0:00:00 14.1, 11.2 - 32, 50, 63 (Avg:56)
99 Heather Johnson Black Heart Dashar Heart Rate L1 0:00:00 16.0 - 46, 59 (Avg:59)
80 Noel Lockhart Lockleigh Park Spirit of Tas Lame L1 0:00:00 13.2 - 38, 39 (Avg:39)
Lightweight
54 Brooke McKenna Miss Mika 1 (BC) 5:19:44 15.5, 14.5 15.01 41, 44, 47 (Avg:45)
83 Angie Clark Castlebar Galahad 2 5:32:32 14.1, 14.6 14.43 50, 52, 57 (Avg:54)
100 Trish Smith Beaucheval Akhiran 3 6:21:11 13.6, 11.6 12.59 35, 48, 60 (Avg:54)
79 Shannon Hill Magic Prediction 4 6:36:33 11.7, 12.5 12.10 38, 42, 47 (Avg:44)
106 Shane Neilley Kalody Park White Feather Lame L2 0:00:00 11.1, 11.8 - 58, 49, 50 (Avg:49)
113 Kirstie Lockhart Lockleigh Park Magic Miss Lame L1 0:00:00 13.2 - 34, 47 (Avg:47)
212 Lynette Walker Brechenridge Django Lame L1 0:00:00 11.0 - 30, 41 (Avg:41)
Junior
331 Bella-Grace Bass Kalody Park Chase 1 (BC) 7:05:49 11.6, 10.9 11.27 41, 45, 46 (Avg:45)
294 Matilda Rockliff Erinvale Jim 1 7:05:49 11.6, 10.9 11.27 37, 47, 55 (Avg:51)
218 Piper Stevenson Apache 3 7:17:35 10.9, 10.9 10.97 39, 49, 48 (Avg:48)
286 Rose McWilliam Anglesea Leonardo Lame L2 0:00:00 10.9, 10.9 - 56, 41, 56 (Avg:48)